Time;durP1;ratioP1;P1;durP2;ratioP2;P2;SDS_P1;SDS_P2;PMS_P1;PMS_P2;Temp;Humidity;BMP_temperature;BMP_pressure;BME280_temperature;BME280_humidity;BME280_pressure;Samples;Min_cycle;Max_cycle;Signal;HPM_P1;HPM_P2
2023/10/03 00:00:34;;;;;;;24.88;10.55;;;;;;;;;;4934232;28;94589;-86
2023/10/03 00:03:03;;;;;;;25.33;10.27;;;;;;;;;;4931593;28;93343;-85
2023/10/03 00:05:31;;;;;;;26.65;10.85;;;;;;;;;;4931284;28;92883;-85
2023/10/03 00:08:06;;;;;;;26.15;10.68;;;;;;;;;;4930397;28;92838;-86
2023/10/03 00:10:33;;;;;;;25.90;10.68;;;;;;;;;;4937236;28;93144;-86
2023/10/03 00:13:00;;;;;;;23.25;10.05;;;;;;;;;;4954396;28;92881;-86
2023/10/03 00:15:30;;;;;;;25.95;10.40;;;;;;;;;;4952009;28;92716;-87
2023/10/03 00:17:57;;;;;;;28.13;10.57;;;;;;;;;;4948109;28;93057;-86
2023/10/03 00:20:24;;;;;;;26.65;10.30;;;;;;;;;;4943501;28;93316;-86
2023/10/03 00:22:51;;;;;;;25.55;10.73;;;;;;;;;;4946625;28;95346;-85
2023/10/03 00:25:19;;;;;;;30.83;12.73;;;;;;;;;;4950437;28;92661;-86
2023/10/03 00:27:46;;;;;;;24.20;10.43;;;;;;;;;;4949814;28;93373;-85
2023/10/03 00:30:14;;;;;;;30.27;11.90;;;;;;;;;;4949847;28;97678;-85
2023/10/03 00:32:43;;;;;;;28.92;11.27;;;;;;;;;;4950272;28;92597;-85
2023/10/03 00:35:11;;;;;;;29.40;12.00;;;;;;;;;;4953131;28;93376;-85
2023/10/03 00:37:39;;;;;;;27.73;11.40;;;;;;;;;;4949473;28;92714;-85
2023/10/03 00:42:49;;;;;;;28.48;11.43;;;;;;;;;;4948294;28;96348;-85
2023/10/03 00:45:19;;;;;;;27.42;10.95;;;;;;;;;;4950294;28;92497;-86
2023/10/03 00:47:51;;;;;;;31.58;12.25;;;;;;;;;;4943882;28;95988;-83
2023/10/03 00:50:23;;;;;;;27.75;11.45;;;;;;;;;;4947437;28;93124;-85
2023/10/03 00:52:55;;;;;;;26.65;10.95;;;;;;;;;;4950312;28;92488;-86
2023/10/03 00:55:24;;;;;;;28.80;11.35;;;;;;;;;;4950764;28;92872;-85
2023/10/03 00:58:01;;;;;;;27.33;10.40;;;;;;;;;;4952380;28;93107;-85
2023/10/03 01:00:28;;;;;;;27.65;11.07;;;;;;;;;;4952155;28;95848;-84
2023/10/03 01:02:55;;;;;;;24.75;10.35;;;;;;;;;;4963014;28;93169;-85
2023/10/03 01:05:23;;;;;;;29.58;10.80;;;;;;;;;;4963540;28;91801;-84
2023/10/03 01:07:50;;;;;;;29.80;12.23;;;;;;;;;;4963439;28;92503;-84
2023/10/03 01:10:20;;;;;;;27.52;10.95;;;;;;;;;;4955668;28;94970;-84
2023/10/03 01:12:49;;;;;;;26.90;10.48;;;;;;;;;;4948394;28;94913;-84
2023/10/03 01:15:17;;;;;;;28.85;11.50;;;;;;;;;;4949528;28;95397;-84
2023/10/03 01:17:53;;;;;;;28.83;11.30;;;;;;;;;;4932412;28;95603;-82
2023/10/03 01:20:28;;;;;;;26.60;11.25;;;;;;;;;;4930467;28;93784;-84
2023/10/03 01:22:55;;;;;;;29.65;12.00;;;;;;;;;;4930867;28;93084;-84
2023/10/03 01:25:22;;;;;;;25.73;10.40;;;;;;;;;;4930777;28;92561;-84
2023/10/03 01:27:49;;;;;;;27.05;10.68;;;;;;;;;;4930670;28;93013;-84
2023/10/03 01:30:17;;;;;;;34.25;12.40;;;;;;;;;;4919160;28;92327;-85
2023/10/03 01:32:48;;;;;;;30.48;12.18;;;;;;;;;;4932563;28;92493;-84
2023/10/03 01:35:15;;;;;;;31.63;12.73;;;;;;;;;;4931306;28;93545;-85
2023/10/03 01:37:42;;;;;;;;;;;;;;;;;;4928957;28;95431;-84
2023/10/03 01:40:16;;;;;;;29.63;11.95;;;;;;;;;;4932909;28;118751;-84
2023/10/03 01:42:45;;;;;;;27.67;11.05;;;;;;;;;;4925715;28;92941;-84
2023/10/03 01:45:19;;;;;;;29.63;11.95;;;;;;;;;;4948682;28;92463;-84
2023/10/03 01:47:49;;;;;;;33.88;11.90;;;;;;;;;;4978094;28;94584;-84
2023/10/03 01:50:19;;;;;;;25.92;11.05;;;;;;;;;;4961542;28;96566;-84
2023/10/03 01:52:47;;;;;;;30.73;11.60;;;;;;;;;;4960655;28;98356;-84
2023/10/03 01:55:15;;;;;;;32.15;12.85;;;;;;;;;;5002335;28;93026;-86
2023/10/03 01:57:41;;;;;;;30.13;12.57;;;;;;;;;;4983520;28;92495;-85
2023/10/03 02:00:30;;;;;;;27.80;11.10;;;;;;;;;;4968025;28;92499;-85
2023/10/03 02:03:01;;;;;;;29.77;11.40;;;;;;;;;;4930801;28;95321;-85
2023/10/03 02:05:28;;;;;;;30.48;11.95;;;;;;;;;;4930761;28;92493;-85
2023/10/03 02:07:55;;;;;;;29.67;11.82;;;;;;;;;;4930894;28;95322;-85
2023/10/03 02:10:22;;;;;;;24.05;9.93;;;;;;;;;;4944129;28;92934;-86
2023/10/03 02:12:53;;;;;;;28.85;11.60;;;;;;;;;;4950803;28;92895;-85
2023/10/03 02:15:23;;;;;;;31.50;12.57;;;;;;;;;;4943610;28;92967;-86
2023/10/03 02:17:52;;;;;;;29.92;11.57;;;;;;;;;;4926515;28;95449;-84
2023/10/03 02:20:21;;;;;;;29.88;11.50;;;;;;;;;;4940143;28;91724;-86
2023/10/03 02:22:54;;;;;;;29.98;11.27;;;;;;;;;;4949202;28;93855;-86
2023/10/03 02:25:30;;;;;;;31.90;12.07;;;;;;;;;;4950537;28;95657;-85
2023/10/03 02:27:57;;;;;;;31.33;12.35;;;;;;;;;;4947347;28;97114;-88
2023/10/03 02:30:25;;;;;;;29.85;11.07;;;;;;;;;;4954417;28;93320;-88
2023/10/03 02:32:52;;;;;;;28.27;11.15;;;;;;;;;;4953281;28;92640;-86
2023/10/03 02:35:24;;;;;;;29.80;10.70;;;;;;;;;;4955914;28;94249;-84
2023/10/03 02:37:58;;;;;;;33.53;12.25;;;;;;;;;;4951558;28;93011;-84
2023/10/03 02:40:30;;;;;;;29.27;11.77;;;;;;;;;;4943914;28;92693;-86
2023/10/03 02:42:59;;;;;;;30.75;11.68;;;;;;;;;;4929078;28;96585;-86
2023/10/03 02:45:28;;;;;;;33.22;12.85;;;;;;;;;;4935344;28;94871;-87
2023/10/03 02:47:55;;;;;;;33.00;12.52;;;;;;;;;;4955191;28;92834;-86
2023/10/03 02:50:26;;;;;;;33.15;11.80;;;;;;;;;;4933004;28;92914;-86
2023/10/03 02:52:56;;;;;;;31.15;11.48;;;;;;;;;;4931556;28;94785;-87
2023/10/03 02:55:23;;;;;;;30.67;11.35;;;;;;;;;;4915454;28;98682;-86
2023/10/03 02:57:49;;;;;;;27.67;11.00;;;;;;;;;;4930023;28;96939;-86
2023/10/03 03:00:19;;;;;;;29.55;11.30;;;;;;;;;;4912702;28;92628;-85
2023/10/03 03:02:47;;;;;;;29.92;11.20;;;;;;;;;;4915861;28;95563;-86
2023/10/03 03:05:22;;;;;;;27.45;11.60;;;;;;;;;;4935241;28;92995;-86
2023/10/03 03:07:58;;;;;;;29.38;10.73;;;;;;;;;;4925085;28;92642;-84
2023/10/03 03:10:27;;;;;;;27.52;10.32;;;;;;;;;;4950071;28;94120;-85
2023/10/03 03:12:54;;;;;;;26.90;10.48;;;;;;;;;;4938828;28;92694;-85
2023/10/03 03:15:26;;;;;;;28.77;9.70;;;;;;;;;;4938847;28;95833;-85
2023/10/03 03:17:53;;;;;;;30.67;11.30;;;;;;;;;;4979057;28;94579;-86
2023/10/03 03:20:24;;;;;;;28.77;9.98;;;;;;;;;;4953425;28;93026;-85
2023/10/03 03:22:52;;;;;;;27.77;10.55;;;;;;;;;;4974541;28;92591;-86
2023/10/03 03:25:35;;;;;;;29.00;10.52;;;;;;;;;;4951362;28;92398;-86
2023/10/03 03:28:12;;;;;;;27.38;10.75;;;;;;;;;;4918765;28;92551;-88
2023/10/03 03:30:45;;;;;;;26.33;10.18;;;;;;;;;;4947798;28;93435;-85
2023/10/03 03:33:21;;;;;;;22.58;8.70;;;;;;;;;;4951783;28;92447;-85
2023/10/03 03:35:47;;;;;;;24.27;8.45;;;;;;;;;;4947550;28;94721;-88
2023/10/03 03:38:18;;;;;;;22.33;9.05;;;;;;;;;;4949331;28;95804;-84
2023/10/03 03:41:04;;;;;;;25.35;9.00;;;;;;;;;;4951814;28;96195;-85
2023/10/03 03:43:31;;;;;;;25.20;9.25;;;;;;;;;;4936072;28;95602;-84
2023/10/03 03:45:58;;;;;;;23.27;8.85;;;;;;;;;;4953511;28;93232;-85
2023/10/03 03:48:25;;;;;;;22.83;8.20;;;;;;;;;;4948197;28;92463;-87
2023/10/03 03:50:51;;;;;;;21.85;8.15;;;;;;;;;;4930855;28;96040;-83
2023/10/03 03:53:21;;;;;;;22.00;8.82;;;;;;;;;;4931030;28;93651;-84
2023/10/03 03:55:49;;;;;;;21.58;8.45;;;;;;;;;;4929660;28;92978;-85
2023/10/03 03:58:18;;;;;;;21.63;8.20;;;;;;;;;;4931519;28;93603;-83
2023/10/03 04:00:50;;;;;;;19.65;7.60;;;;;;;;;;4932422;28;92183;-83
2023/10/03 04:03:18;;;;;;;18.75;7.40;;;;;;;;;;4932103;28;93135;-84
2023/10/03 04:05:49;;;;;;;20.33;7.68;;;;;;;;;;4932738;28;93168;-84
2023/10/03 04:08:16;;;;;;;22.10;8.13;;;;;;;;;;4944348;28;95463;-84
2023/10/03 04:10:43;;;;;;;20.58;6.93;;;;;;;;;;4927589;28;95166;-86
2023/10/03 04:13:10;;;;;;;19.65;7.03;;;;;;;;;;4939076;28;93061;-84
2023/10/03 04:15:40;;;;;;;18.02;6.63;;;;;;;;;;4933456;28;92454;-84
2023/10/03 04:18:07;;;;;;;18.08;6.55;;;;;;;;;;4957275;28;93774;-84
2023/10/03 04:20:35;;;;;;;14.15;5.75;;;;;;;;;;4968272;28;92530;-88
2023/10/03 04:23:03;;;;;;;16.75;5.40;;;;;;;;;;4955169;28;92941;-85
2023/10/03 04:25:32;;;;;;;17.77;5.25;;;;;;;;;;4951599;28;92545;-84
2023/10/03 04:27:59;;;;;;;16.83;5.07;;;;;;;;;;4950659;28;92732;-86
2023/10/03 04:30:26;;;;;;;;;;;;;;;;;;4966319;28;95735;-85
2023/10/03 04:32:54;;;;;;;15.55;5.22;;;;;;;;;;4949668;28;114722;-86
2023/10/03 04:35:22;;;;;;;16.23;5.07;;;;;;;;;;4947881;28;93498;-86
2023/10/03 04:37:51;;;;;;;14.57;5.13;;;;;;;;;;4949379;28;93458;-83
2023/10/03 04:40:23;;;;;;;15.32;5.40;;;;;;;;;;4946036;28;92559;-86
2023/10/03 04:42:49;;;;;;;14.60;5.18;;;;;;;;;;4935795;28;94275;-86
2023/10/03 04:45:19;;;;;;;13.77;5.10;;;;;;;;;;4948957;28;93678;-85
2023/10/03 04:47:47;;;;;;;14.32;5.22;;;;;;;;;;4967669;28;92581;-87
2023/10/03 04:50:18;;;;;;;17.50;5.55;;;;;;;;;;4953532;28;99507;-87
2023/10/03 04:52:48;;;;;;;14.80;5.03;;;;;;;;;;4950771;28;93040;-85
2023/10/03 04:55:18;;;;;;;17.23;5.78;;;;;;;;;;4951429;28;93008;-88
2023/10/03 04:57:45;;;;;;;14.70;5.35;;;;;;;;;;4938169;28;94982;-84
2023/10/03 05:00:15;;;;;;;18.45;5.30;;;;;;;;;;4930913;28;93296;-84
2023/10/03 05:02:47;;;;;;;19.77;6.22;;;;;;;;;;4932425;28;93417;-84
2023/10/03 05:05:15;;;;;;;14.85;4.63;;;;;;;;;;4952801;28;96076;-87
2023/10/03 05:07:42;;;;;;;14.30;4.93;;;;;;;;;;4931692;28;92400;-84
2023/10/03 05:10:08;;;;;;;13.40;5.10;;;;;;;;;;4966188;28;96368;-86
2023/10/03 05:12:35;;;;;;;13.75;5.53;;;;;;;;;;4940503;28;93439;-86
2023/10/03 05:15:03;;;;;;;11.10;4.63;;;;;;;;;;4958568;28;91719;-88
2023/10/03 05:17:30;;;;;;;15.18;4.85;;;;;;;;;;4973218;28;92938;-85
2023/10/03 05:19:58;;;;;;;11.60;4.22;;;;;;;;;;4945708;28;93107;-85
2023/10/03 05:22:32;;;;;;;15.38;4.68;;;;;;;;;;4941975;28;95190;-88
2023/10/03 05:25:00;;;;;;;12.43;4.15;;;;;;;;;;4936590;28;93151;-86
2023/10/03 05:27:32;;;;;;;11.82;4.15;;;;;;;;;;4933950;28;92777;-86
2023/10/03 05:29:59;;;;;;;12.65;3.72;;;;;;;;;;4912900;28;95864;-86
2023/10/03 05:32:29;;;;;;;12.85;3.95;;;;;;;;;;4923166;28;92821;-88
2023/10/03 05:34:55;;;;;;;10.35;3.28;;;;;;;;;;4931169;28;93258;-83
2023/10/03 05:37:22;;;;;;;12.57;3.33;;;;;;;;;;4931150;28;93363;-83
2023/10/03 05:39:49;;;;;;;11.30;3.65;;;;;;;;;;4931071;28;92082;-83
2023/10/03 05:42:17;;;;;;;7.70;3.13;;;;;;;;;;4949245;28;92475;-82
2023/10/03 05:44:44;;;;;;;10.40;3.67;;;;;;;;;;4923663;28;93073;-83
2023/10/03 05:47:11;;;;;;;10.77;3.90;;;;;;;;;;4951811;28;95049;-83
2023/10/03 05:49:38;;;;;;;9.77;3.15;;;;;;;;;;4956686;28;95270;-83
2023/10/03 05:52:06;;;;;;;9.65;3.35;;;;;;;;;;4953291;28;93054;-83
2023/10/03 05:54:34;;;;;;;8.35;2.95;;;;;;;;;;4948932;28;92605;-83
2023/10/03 05:57:01;;;;;;;8.23;3.10;;;;;;;;;;4956134;28;94140;-83
2023/10/03 05:59:28;;;;;;;8.48;2.85;;;;;;;;;;4949138;28;92465;-83
2023/10/03 06:01:57;;;;;;;;;;;;;;;;;;4956004;28;92542;-83
2023/10/03 06:04:24;;;;;;;8.60;2.97;;;;;;;;;;4962616;28;91759;-83
2023/10/03 06:06:50;;;;;;;;;;;;;;;;;;4954248;28;92681;-83
2023/10/03 06:09:17;;;;;;;8.82;3.08;;;;;;;;;;4967920;28;92889;-83
2023/10/03 06:11:44;;;;;;;10.23;3.63;;;;;;;;;;4953143;28;95576;-84
2023/10/03 06:14:10;;;;;;;8.10;3.25;;;;;;;;;;4950803;28;92668;-83
2023/10/03 06:16:37;;;;;;;9.40;3.13;;;;;;;;;;4952796;28;92942;-83
2023/10/03 06:19:04;;;;;;;10.32;3.20;;;;;;;;;;4952347;28;93199;-84
2023/10/03 06:21:30;;;;;;;10.00;2.97;;;;;;;;;;4952771;28;92660;-84
2023/10/03 06:23:57;;;;;;;9.00;3.00;;;;;;;;;;4953979;28;93642;-85
2023/10/03 06:26:24;;;;;;;8.23;3.00;;;;;;;;;;4962089;28;93265;-84
2023/10/03 06:28:53;;;;;;;8.05;2.95;;;;;;;;;;4955553;28;92726;-84
2023/10/03 06:31:21;;;;;;;9.18;3.15;;;;;;;;;;4953463;28;93056;-81
2023/10/03 06:33:49;;;;;;;;;;;;;;;;;;4961199;28;92508;-83
2023/10/03 06:36:16;;;;;;;10.32;3.25;;;;;;;;;;4961952;28;95234;-86
2023/10/03 06:38:43;;;;;;;10.70;3.20;;;;;;;;;;4954721;28;95522;-85
2023/10/03 06:41:16;;;;;;;8.52;3.25;;;;;;;;;;4955574;28;92585;-86
2023/10/03 06:43:42;;;;;;;10.18;3.45;;;;;;;;;;4948525;28;95437;-85
2023/10/03 06:46:10;;;;;;;11.75;3.53;;;;;;;;;;4979119;28;93063;-84
2023/10/03 06:48:36;;;;;;;;;;;;;;;;;;4927937;28;93310;-83
2023/10/03 06:51:05;;;;;;;8.80;2.92;;;;;;;;;;4966792;28;111738;-83
2023/10/03 06:53:32;;;;;;;11.05;3.97;;;;;;;;;;4956086;28;91899;-83
2023/10/03 06:56:00;;;;;;;9.88;3.33;;;;;;;;;;4955795;28;94290;-83
2023/10/03 06:58:27;;;;;;;10.73;3.33;;;;;;;;;;4953370;28;100183;-83
2023/10/03 07:00:54;;;;;;;12.32;3.53;;;;;;;;;;4952799;28;94888;-83
2023/10/03 07:03:22;;;;;;;8.20;2.63;;;;;;;;;;4945902;28;95121;-83
2023/10/03 07:05:49;;;;;;;10.48;2.90;;;;;;;;;;4939724;28;93123;-83
2023/10/03 07:08:16;;;;;;;8.95;3.20;;;;;;;;;;4939025;28;93046;-83
2023/10/03 07:10:42;;;;;;;8.05;3.10;;;;;;;;;;4945398;28;93000;-83
2023/10/03 07:13:11;;;;;;;8.02;2.65;;;;;;;;;;4940651;28;92495;-84
2023/10/03 07:15:39;;;;;;;9.07;2.70;;;;;;;;;;4938827;28;93518;-84
2023/10/03 07:18:06;;;;;;;7.53;2.63;;;;;;;;;;4934703;28;94135;-84
2023/10/03 07:20:34;;;;;;;11.23;2.65;;;;;;;;;;4937459;28;92439;-83
2023/10/03 07:23:02;;;;;;;10.23;2.28;;;;;;;;;;4939903;28;92899;-82
2023/10/03 07:25:32;;;;;;;7.45;1.90;;;;;;;;;;4938953;28;96564;-83
2023/10/03 07:27:59;;;;;;;8.57;2.53;;;;;;;;;;4929479;28;92500;-83
2023/10/03 07:30:25;;;;;;;7.97;2.20;;;;;;;;;;4944972;28;92486;-83
2023/10/03 07:32:52;;;;;;;6.88;2.13;;;;;;;;;;4955468;28;93210;-83
2023/10/03 07:35:21;;;;;;;9.48;2.17;;;;;;;;;;4948068;28;93061;-83
2023/10/03 07:37:50;;;;;;;6.60;2.30;;;;;;;;;;4950818;28;94215;-83
2023/10/03 07:40:17;;;;;;;9.43;2.13;;;;;;;;;;4950820;28;92889;-84
2023/10/03 07:42:44;;;;;;;9.23;2.20;;;;;;;;;;4952041;28;92719;-84
2023/10/03 07:45:10;;;;;;;6.78;2.08;;;;;;;;;;4950962;28;93707;-83
2023/10/03 07:47:39;;;;;;;6.55;2.17;;;;;;;;;;4951150;28;92943;-83
2023/10/03 07:50:06;;;;;;;9.40;2.20;;;;;;;;;;4948910;28;94827;-83
2023/10/03 07:52:34;;;;;;;9.27;1.95;;;;;;;;;;4953938;28;93879;-83
2023/10/03 07:55:03;;;;;;;7.57;2.03;;;;;;;;;;4948876;28;94189;-83
2023/10/03 07:57:30;;;;;;;6.03;1.80;;;;;;;;;;4951050;28;94284;-84
2023/10/03 07:59:57;;;;;;;7.47;2.05;;;;;;;;;;4948200;28;92501;-83
2023/10/03 08:02:32;;;;;;;6.22;1.75;;;;;;;;;;4952920;28;92867;-83
2023/10/03 08:05:02;;;;;;;8.32;1.83;;;;;;;;;;4950715;28;92925;-82
2023/10/03 08:07:28;;;;;;;6.47;1.73;;;;;;;;;;4954972;28;91829;-83
2023/10/03 08:09:55;;;;;;;5.63;1.63;;;;;;;;;;4945169;28;92731;-83
2023/10/03 08:12:25;;;;;;;6.07;1.85;;;;;;;;;;4951401;28;94975;-83
2023/10/03 08:14:52;;;;;;;6.43;1.77;;;;;;;;;;4951838;28;94842;-83
2023/10/03 08:17:19;;;;;;;6.32;1.80;;;;;;;;;;4950543;28;92958;-83
2023/10/03 08:19:49;;;;;;;7.38;2.13;;;;;;;;;;4950337;28;92511;-83
2023/10/03 08:22:16;;;;;;;4.38;1.50;;;;;;;;;;4949843;28;97222;-83
2023/10/03 08:24:45;;;;;;;6.45;1.80;;;;;;;;;;4950963;28;93119;-83
2023/10/03 08:27:18;;;;;;;6.03;1.63;;;;;;;;;;4951308;28;92408;-83
2023/10/03 08:29:50;;;;;;;;;;;;;;;;;;4951137;28;92943;-83
2023/10/03 08:32:17;;;;;;;;;;;;;;;;;;4953902;28;96645;-83
2023/10/03 08:34:44;;;;;;;6.30;1.70;;;;;;;;;;4951775;28;97325;-83
2023/10/03 08:37:21;;;;;;;5.78;1.70;;;;;;;;;;4953254;28;93063;-84
2023/10/03 08:39:48;;;;;;;5.20;1.45;;;;;;;;;;4936352;28;95423;-83
2023/10/03 08:42:17;;;;;;;7.53;1.85;;;;;;;;;;4949358;28;95582;-84
2023/10/03 08:44:45;;;;;;;5.60;1.80;;;;;;;;;;4949499;28;93297;-83
2023/10/03 08:47:20;;;;;;;5.78;1.70;;;;;;;;;;4950173;28;95015;-83
2023/10/03 08:49:48;;;;;;;4.32;1.50;;;;;;;;;;4940979;28;93280;-83
2023/10/03 08:52:15;;;;;;;5.63;1.40;;;;;;;;;;4949944;28;93409;-84
2023/10/03 08:54:41;;;;;;;5.60;1.60;;;;;;;;;;4954400;28;92757;-85
2023/10/03 08:57:11;;;;;;;11.60;1.60;;;;;;;;;;4952743;28;92872;-85
2023/10/03 08:59:41;;;;;;;5.63;1.65;;;;;;;;;;4953037;28;94150;-84
2023/10/03 09:02:11;;;;;;;5.28;1.60;;;;;;;;;;4949410;28;92887;-85
2023/10/03 09:04:39;;;;;;;4.20;1.40;;;;;;;;;;4947740;28;95373;-85
2023/10/03 09:07:09;;;;;;;3.90;1.48;;;;;;;;;;4949640;28;92464;-84
2023/10/03 09:09:41;;;;;;;4.63;1.58;;;;;;;;;;4945724;28;93088;-84
2023/10/03 09:12:08;;;;;;;5.70;1.45;;;;;;;;;;4947933;28;93138;-84
2023/10/03 09:14:37;;;;;;;4.55;1.20;;;;;;;;;;4947092;28;92466;-84
2023/10/03 09:17:04;;;;;;;4.85;1.38;;;;;;;;;;4938162;28;92747;-84
2023/10/03 09:19:47;;;;;;;4.18;1.30;;;;;;;;;;4948449;28;94257;-84
2023/10/03 09:22:31;;;;;;;4.90;1.23;;;;;;;;;;4951871;28;91962;-83
2023/10/03 09:24:57;;;;;;;5.80;1.30;;;;;;;;;;4948278;28;93346;-85
2023/10/03 09:27:30;;;;;;;4.53;1.40;;;;;;;;;;4952856;28;92519;-84
2023/10/03 09:29:58;;;;;;;3.78;1.00;;;;;;;;;;4948790;28;94794;-84
2023/10/03 09:32:25;;;;;;;4.30;1.23;;;;;;;;;;4951676;28;92826;-84
2023/10/03 09:34:59;;;;;;;4.50;1.30;;;;;;;;;;4944682;28;100329;-85
2023/10/03 09:37:29;;;;;;;5.63;1.20;;;;;;;;;;4929539;28;92823;-84
2023/10/03 09:40:00;;;;;;;5.60;1.20;;;;;;;;;;4929606;28;93819;-84
2023/10/03 09:42:30;;;;;;;2.88;0.95;;;;;;;;;;4923261;28;92950;-84
2023/10/03 09:44:59;;;;;;;3.58;1.20;;;;;;;;;;4957093;28;93290;-84
2023/10/03 09:47:34;;;;;;;2.22;1.00;;;;;;;;;;4964071;28;92081;-82
2023/10/03 09:50:07;;;;;;;6.18;1.30;;;;;;;;;;4957048;28;93019;-84
2023/10/03 09:52:36;;;;;;;5.18;1.17;;;;;;;;;;4961258;28;92983;-84
2023/10/03 09:55:17;;;;;;;3.40;1.00;;;;;;;;;;4956754;28;95362;-85
2023/10/03 09:57:51;;;;;;;5.65;1.20;;;;;;;;;;4949714;28;95165;-85
2023/10/03 10:03:09;;;;;;;3.20;0.98;;;;;;;;;;4942761;28;92499;-85
2023/10/03 10:05:39;;;;;;;3.80;1.20;;;;;;;;;;4951541;28;94114;-84
2023/10/03 10:08:17;;;;;;;3.85;1.00;;;;;;;;;;4946003;28;92906;-84
2023/10/03 10:11:02;;;;;;;6.00;1.10;;;;;;;;;;4940343;28;95577;-84
2023/10/03 10:13:34;;;;;;;;;;;;;;;;;;4944856;28;92693;-84
2023/10/03 10:16:01;;;;;;;2.25;0.95;;;;;;;;;;4951326;28;101239;-83
2023/10/03 10:18:43;;;;;;;2.95;1.00;;;;;;;;;;4943737;28;92813;-84
2023/10/03 10:21:39;;;;;;;4.57;1.02;;;;;;;;;;4941554;28;95370;-84
2023/10/03 10:24:40;;;;;;;4.10;1.02;;;;;;;;;;4941702;28;92785;-84
2023/10/03 10:27:21;;;;;;;3.55;0.90;;;;;;;;;;4949173;28;93016;-84
2023/10/03 10:30:01;;;;;;;3.47;1.10;;;;;;;;;;4950544;28;92839;-84
2023/10/03 10:32:28;;;;;;;2.90;0.70;;;;;;;;;;4949653;28;93620;-84
2023/10/03 10:35:01;;;;;;;3.15;1.10;;;;;;;;;;4952378;28;93096;-84
2023/10/03 10:37:47;;;;;;;3.85;1.00;;;;;;;;;;4951100;28;93095;-84
2023/10/03 10:43:04;;;;;;;5.47;1.00;;;;;;;;;;4950438;28;110946;-84
2023/10/03 10:45:42;;;;;;;5.18;1.02;;;;;;;;;;4950504;28;93118;-84
2023/10/03 10:48:09;;;;;;;3.58;0.77;;;;;;;;;;4946285;28;94951;-84
2023/10/03 10:50:54;;;;;;;4.00;0.98;;;;;;;;;;4948110;28;94660;-84
2023/10/03 10:53:21;;;;;;;;;;;;;;;;;;4949056;28;92517;-84
2023/10/03 10:55:47;;;;;;;3.50;1.05;;;;;;;;;;4948534;28;93273;-83
2023/10/03 10:58:14;;;;;;;3.97;0.88;;;;;;;;;;4949187;28;92881;-84
2023/10/03 11:00:41;;;;;;;3.45;0.90;;;;;;;;;;4950454;28;95796;-84
2023/10/03 11:03:08;;;;;;;5.63;1.10;;;;;;;;;;4951591;28;94252;-82
2023/10/03 11:05:49;;;;;;;3.03;0.80;;;;;;;;;;4947290;28;91917;-83
2023/10/03 11:08:17;;;;;;;4.55;1.00;;;;;;;;;;4947938;28;96677;-83
2023/10/03 11:11:02;;;;;;;2.67;0.90;;;;;;;;;;4944069;28;93072;-83
2023/10/03 11:13:28;;;;;;;4.88;1.00;;;;;;;;;;4940913;28;95409;-84
2023/10/03 11:15:55;;;;;;;3.67;1.15;;;;;;;;;;4955338;28;93999;-82
2023/10/03 11:18:32;;;;;;;4.35;0.93;;;;;;;;;;4949307;28;92854;-83
2023/10/03 11:20:59;;;;;;;3.10;0.90;;;;;;;;;;4943897;28;93607;-83
2023/10/03 11:23:26;;;;;;;2.67;1.00;;;;;;;;;;4950341;28;92979;-84
2023/10/03 11:25:57;;;;;;;2.83;0.88;;;;;;;;;;4965846;28;92891;-82
2023/10/03 11:28:29;;;;;;;3.28;0.93;;;;;;;;;;4951693;28;93371;-83
2023/10/03 11:31:03;;;;;;;3.90;0.82;;;;;;;;;;4952201;28;93428;-83
2023/10/03 11:33:46;;;;;;;2.53;0.82;;;;;;;;;;4955040;28;92568;-83
2023/10/03 11:36:13;;;;;;;4.13;1.00;;;;;;;;;;4954082;28;96053;-84
2023/10/03 11:38:50;;;;;;;3.80;1.00;;;;;;;;;;4953395;28;95567;-83
2023/10/03 11:41:33;;;;;;;3.13;0.98;;;;;;;;;;4952569;28;95219;-85
2023/10/03 11:44:00;;;;;;;3.78;1.08;;;;;;;;;;4949365;28;92956;-85
2023/10/03 11:46:35;;;;;;;2.65;0.90;;;;;;;;;;4950221;28;92918;-85
2023/10/03 11:49:03;;;;;;;4.45;1.13;;;;;;;;;;4941830;28;93220;-85
2023/10/03 11:51:31;;;;;;;3.75;1.02;;;;;;;;;;4947862;28;93065;-85
2023/10/03 11:53:58;;;;;;;4.03;1.00;;;;;;;;;;4959058;28;93081;-85
2023/10/03 11:56:24;;;;;;;2.63;1.05;;;;;;;;;;4944331;28;92767;-84
2023/10/03 11:58:54;;;;;;;3.85;0.90;;;;;;;;;;4952775;28;93125;-84
2023/10/03 12:01:22;;;;;;;3.25;1.00;;;;;;;;;;4946369;28;92897;-84
2023/10/03 12:03:51;;;;;;;3.60;1.00;;;;;;;;;;4946406;28;95280;-84
2023/10/03 12:06:18;;;;;;;5.93;1.23;;;;;;;;;;4951354;28;92813;-85
2023/10/03 12:08:47;;;;;;;4.75;1.08;;;;;;;;;;4950688;28;93272;-85
2023/10/03 12:11:14;;;;;;;2.58;0.93;;;;;;;;;;4950931;28;93070;-85
2023/10/03 12:13:41;;;;;;;3.28;1.00;;;;;;;;;;4950270;28;92475;-85
2023/10/03 12:16:08;;;;;;;3.55;1.10;;;;;;;;;;4941637;28;93786;-84
2023/10/03 12:18:37;;;;;;;6.13;1.20;;;;;;;;;;4952103;28;94811;-85
2023/10/03 12:21:04;;;;;;;4.13;1.10;;;;;;;;;;4938839;28;92289;-84
2023/10/03 12:23:31;;;;;;;3.47;1.10;;;;;;;;;;4949563;28;92970;-84
2023/10/03 12:25:58;;;;;;;4.45;1.25;;;;;;;;;;4949323;28;92480;-84
2023/10/03 12:28:37;;;;;;;5.50;1.50;;;;;;;;;;4947837;28;94902;-84
2023/10/03 12:31:05;;;;;;;4.40;1.33;;;;;;;;;;4949965;28;93159;-84
2023/10/03 12:33:31;;;;;;;4.68;1.30;;;;;;;;;;4963892;28;92469;-84
2023/10/03 12:36:02;;;;;;;4.57;1.23;;;;;;;;;;4976032;28;94375;-84
2023/10/03 12:38:29;;;;;;;4.13;1.40;;;;;;;;;;4949810;28;92927;-85
2023/10/03 12:40:56;;;;;;;3.95;1.50;;;;;;;;;;4948328;28;93233;-83
2023/10/03 12:43:23;;;;;;;6.30;1.45;;;;;;;;;;4952811;28;92955;-84
2023/10/03 12:45:49;;;;;;;6.07;1.75;;;;;;;;;;4951029;28;91712;-84
2023/10/03 12:48:18;;;;;;;5.32;1.40;;;;;;;;;;4952428;28;92309;-83
2023/10/03 12:50:45;;;;;;;7.88;1.60;;;;;;;;;;4951007;28;93305;-84
2023/10/03 12:53:11;;;;;;;7.63;1.65;;;;;;;;;;4947560;28;95386;-84
2023/10/03 12:55:38;;;;;;;7.50;1.85;;;;;;;;;;4953863;28;93966;-84
2023/10/03 12:58:05;;;;;;;6.00;1.48;;;;;;;;;;4956073;28;92881;-84
2023/10/03 13:00:31;;;;;;;4.38;1.35;;;;;;;;;;4957778;28;92886;-85
2023/10/03 13:02:59;;;;;;;5.97;1.60;;;;;;;;;;4956225;28;93822;-85
2023/10/03 13:05:27;;;;;;;8.25;1.80;;;;;;;;;;4962563;28;92528;-84
2023/10/03 13:07:54;;;;;;;7.95;1.63;;;;;;;;;;4956697;28;92789;-84
2023/10/03 13:10:21;;;;;;;4.18;1.38;;;;;;;;;;4963800;28;93022;-84
2023/10/03 13:12:49;;;;;;;6.20;1.70;;;;;;;;;;4971975;28;92640;-85
2023/10/03 13:15:17;;;;;;;6.03;1.40;;;;;;;;;;4983803;28;92356;-85
2023/10/03 13:17:45;;;;;;;5.55;1.45;;;;;;;;;;4968144;28;94952;-84
2023/10/03 13:20:12;;;;;;;6.95;1.63;;;;;;;;;;4946361;28;93167;-84
2023/10/03 13:22:40;;;;;;;5.45;1.50;;;;;;;;;;4929842;28;93909;-84
2023/10/03 13:25:11;;;;;;;7.15;1.63;;;;;;;;;;4930298;28;94093;-84
2023/10/03 13:27:38;;;;;;;5.53;1.60;;;;;;;;;;4936665;28;92783;-84
2023/10/03 13:30:09;;;;;;;5.78;1.70;;;;;;;;;;4944296;28;96028;-85
2023/10/03 13:32:37;;;;;;;6.05;1.40;;;;;;;;;;4930634;28;93273;-84
2023/10/03 13:35:05;;;;;;;4.28;1.42;;;;;;;;;;4926789;28;92333;-84
2023/10/03 13:37:35;;;;;;;7.22;1.67;;;;;;;;;;4928378;28;92709;-83
2023/10/03 13:40:06;;;;;;;7.60;1.52;;;;;;;;;;4942905;28;92413;-84
2023/10/03 13:42:33;;;;;;;4.60;1.45;;;;;;;;;;4927880;28;95594;-86
2023/10/03 13:44:59;;;;;;;5.55;1.50;;;;;;;;;;4947402;28;93497;-86
2023/10/03 13:47:26;;;;;;;6.28;1.45;;;;;;;;;;4959676;28;93361;-86
2023/10/03 13:49:53;;;;;;;5.45;1.50;;;;;;;;;;4953234;28;93934;-86
2023/10/03 13:52:20;;;;;;;5.80;1.60;;;;;;;;;;4950161;28;92525;-86
2023/10/03 13:54:47;;;;;;;8.27;1.58;;;;;;;;;;4965213;28;93901;-88
2023/10/03 13:57:15;;;;;;;6.05;1.60;;;;;;;;;;4950088;28;93499;-86
2023/10/03 13:59:46;;;;;;;7.25;1.48;;;;;;;;;;4949425;28;91980;-86
2023/10/03 14:02:13;;;;;;;7.30;1.75;;;;;;;;;;4937232;28;93462;-84
2023/10/03 14:04:40;;;;;;;5.70;1.58;;;;;;;;;;4952257;28;92490;-85
2023/10/03 14:07:06;;;;;;;4.18;1.50;;;;;;;;;;4936556;28;95152;-84
2023/10/03 14:09:33;;;;;;;6.90;1.80;;;;;;;;;;4955701;28;95755;-85
2023/10/03 14:12:04;;;;;;;8.07;1.58;;;;;;;;;;4916308;28;92839;-85
2023/10/03 14:14:32;;;;;;;6.65;1.60;;;;;;;;;;4934867;28;93250;-84
2023/10/03 14:17:02;;;;;;;7.18;1.50;;;;;;;;;;4946874;28;93327;-85
2023/10/03 14:19:30;;;;;;;6.40;1.63;;;;;;;;;;4946220;28;93189;-85
2023/10/03 14:21:59;;;;;;;4.53;1.40;;;;;;;;;;4947089;28;93739;-84
2023/10/03 14:24:26;;;;;;;5.40;1.45;;;;;;;;;;4948833;28;92118;-84
2023/10/03 14:26:53;;;;;;;7.05;1.90;;;;;;;;;;4948730;28;93240;-85
2023/10/03 14:29:20;;;;;;;5.63;1.60;;;;;;;;;;4942191;28;92834;-85
2023/10/03 14:31:47;;;;;;;7.60;1.70;;;;;;;;;;4951623;28;96690;-86
2023/10/03 14:34:14;;;;;;;6.25;1.70;;;;;;;;;;4951314;28;101294;-84
2023/10/03 14:36:43;;;;;;;6.30;1.58;;;;;;;;;;4954239;28;94684;-84
2023/10/03 14:39:13;;;;;;;6.75;1.50;;;;;;;;;;4945035;28;93122;-85
2023/10/03 14:41:40;;;;;;;6.90;1.73;;;;;;;;;;4953362;28;92930;-85
2023/10/03 14:44:09;;;;;;;6.47;1.70;;;;;;;;;;4953119;28;93174;-84
2023/10/03 14:46:35;;;;;;;5.90;1.50;;;;;;;;;;4959213;28;92433;-84
2023/10/03 14:49:03;;;;;;;5.10;1.60;;;;;;;;;;4956562;28;92207;-84
2023/10/03 14:51:30;;;;;;;5.32;1.63;;;;;;;;;;4952853;28;93059;-85
2023/10/03 14:53:57;;;;;;;6.28;1.70;;;;;;;;;;4961185;28;92447;-84
2023/10/03 14:56:24;;;;;;;8.13;1.88;;;;;;;;;;4965393;28;96562;-83
2023/10/03 14:58:50;;;;;;;6.45;1.60;;;;;;;;;;4978873;28;92583;-86